Terminal Aerodrome Forecast
Issued by NWS

Current Version | Previous Version | Text Only | Print | Product List | Glossary Off
Versions: 1 2 3 4 5 6 7 8 9 10 11 12 13 14 15 16 17 18 19 20 21 22 23 24 25 26

000
FTUS41 KPBZ 032302 AAB
TAFHLG
TAF AMD
KHLG 032302Z 0323/0418 30005KT P6SM VCSH BKN050
      TEMPO 0323/0324 3SM -TSRA BKN035CB
     FM040200 VRB03KT P6SM SCT050
     FM040700 00000KT 3SM BR SKC
     FM040900 00000KT 1SM BR SKC
     FM041400 10003KT P6SM SKC=

USA.gov is the U.S. government's official web portal to all federal, state and local government web resources and services.